createdAt,value
2023-05-16T00:00:36.469Z,20.40
2023-05-16T00:03:03.593Z,20.41
2023-05-16T00:05:30.674Z,20.38
2023-05-16T00:07:57.530Z,20.39
2023-05-16T00:10:24.732Z,20.39
2023-05-16T00:12:51.999Z,20.42
2023-05-16T00:15:20.582Z,20.45
2023-05-16T00:17:47.547Z,20.46
2023-05-16T00:20:14.512Z,20.46
2023-05-16T00:22:41.430Z,20.46
2023-05-16T00:25:09.870Z,20.46
2023-05-16T00:27:36.929Z,20.47
2023-05-16T00:30:04.100Z,20.47
2023-05-16T00:32:31.471Z,20.48
2023-05-16T00:34:58.375Z,20.49
2023-05-16T00:37:25.355Z,20.48
2023-05-16T00:39:52.298Z,20.50
2023-05-16T00:42:20.273Z,20.48
2023-05-16T00:44:47.656Z,20.48
2023-05-16T00:47:15.169Z,20.50
2023-05-16T00:49:42.242Z,20.49
2023-05-16T00:52:09.260Z,20.49
2023-05-16T00:54:36.251Z,20.49
2023-05-16T00:57:03.814Z,20.50
2023-05-16T00:59:31.190Z,20.51
2023-05-16T01:01:58.260Z,20.51
2023-05-16T01:04:25.501Z,20.49
2023-05-16T01:06:52.463Z,20.51
2023-05-16T01:09:19.702Z,20.51
2023-05-16T01:11:47.972Z,20.52
2023-05-16T01:14:20.478Z,20.52
2023-05-16T01:16:51.664Z,20.52
2023-05-16T01:19:21.902Z,20.53
2023-05-16T01:21:51.436Z,20.52
2023-05-16T01:24:21.530Z,20.53
2023-05-16T01:26:49.267Z,20.53
2023-05-16T01:29:16.258Z,20.53
2023-05-16T01:31:43.234Z,20.52
2023-05-16T01:34:10.221Z,20.51
2023-05-16T01:36:44.886Z,20.51
2023-05-16T01:39:16.303Z,20.52
2023-05-16T01:41:43.653Z,20.53
2023-05-16T01:44:13.609Z,20.53
2023-05-16T01:46:44.717Z,20.53
2023-05-16T01:49:17.740Z,20.53
2023-05-16T01:51:50.751Z,20.53
2023-05-16T01:54:19.034Z,20.53
2023-05-16T01:56:51.927Z,20.54
2023-05-16T01:59:21.057Z,20.54
2023-05-16T02:01:48.129Z,20.53
2023-05-16T02:04:16.132Z,20.55
2023-05-16T02:06:43.783Z,20.53
2023-05-16T02:09:10.698Z,20.55
2023-05-16T02:11:37.700Z,20.55
2023-05-16T02:14:04.566Z,20.53
2023-05-16T02:16:31.880Z,20.56
2023-05-16T02:18:58.975Z,20.55
2023-05-16T02:21:26.017Z,20.53
2023-05-16T02:23:53.399Z,20.53
2023-05-16T02:26:20.253Z,20.55
2023-05-16T02:28:49.769Z,20.57
2023-05-16T02:31:21.126Z,20.55
2023-05-16T02:33:48.035Z,20.54
2023-05-16T02:36:15.168Z,20.54
2023-05-16T02:38:41.973Z,20.55
2023-05-16T02:41:08.810Z,20.54
2023-05-16T02:43:35.714Z,20.55
2023-05-16T02:46:04.858Z,20.54
2023-05-16T02:48:32.260Z,20.55
2023-05-16T02:50:59.082Z,20.54
2023-05-16T02:53:26.073Z,20.54
2023-05-16T02:55:52.950Z,20.52
2023-05-16T02:58:19.806Z,20.53
2023-05-16T03:00:48.359Z,20.54
2023-05-16T03:03:15.308Z,20.53
2023-05-16T03:05:42.707Z,20.55
2023-05-16T03:08:09.610Z,20.53
2023-05-16T03:10:36.571Z,20.53
2023-05-16T03:13:03.357Z,20.53
2023-05-16T03:15:30.320Z,20.52
2023-05-16T03:17:57.695Z,20.50
2023-05-16T03:20:24.651Z,20.45
2023-05-16T03:22:51.672Z,20.50
2023-05-16T03:25:18.497Z,20.50
2023-05-16T03:27:45.387Z,20.51
2023-05-16T03:30:13.358Z,20.50
2023-05-16T03:32:40.322Z,20.49
2023-05-16T03:35:07.518Z,20.50
2023-05-16T03:37:35.699Z,20.51
2023-05-16T03:40:05.261Z,20.51
2023-05-16T03:42:32.614Z,20.50
2023-05-16T03:44:59.569Z,20.51
2023-05-16T03:47:26.862Z,20.51
2023-05-16T03:49:53.724Z,20.49
2023-05-16T03:52:20.644Z,20.48
2023-05-16T03:54:47.567Z,20.49
2023-05-16T03:57:14.452Z,20.49
2023-05-16T03:59:41.284Z,20.47
2023-05-16T04:02:08.496Z,20.49
2023-05-16T04:04:35.653Z,20.46
2023-05-16T04:07:03.188Z,20.46
2023-05-16T04:09:30.235Z,20.47
2023-05-16T04:11:57.243Z,20.45
2023-05-16T04:14:24.612Z,20.45
2023-05-16T04:16:52.019Z,20.45
2023-05-16T04:19:19.643Z,20.45
2023-05-16T04:21:46.828Z,20.45
2023-05-16T04:24:13.639Z,20.44
2023-05-16T04:26:40.501Z,20.42
2023-05-16T04:29:07.497Z,20.44
2023-05-16T04:31:34.495Z,20.43
2023-05-16T04:34:01.734Z,20.42
2023-05-16T04:36:30.403Z,20.40
2023-05-16T04:38:58.069Z,20.40
2023-05-16T04:41:25.729Z,20.41
2023-05-16T04:43:54.062Z,20.40
2023-05-16T04:46:21.345Z,20.39
2023-05-16T04:48:48.336Z,20.40
2023-05-16T04:51:15.174Z,20.45
2023-05-16T04:53:42.261Z,20.53
2023-05-16T04:56:09.110Z,20.58
2023-05-16T04:58:36.181Z,20.61
2023-05-16T05:01:03.327Z,20.64
2023-05-16T05:03:30.178Z,20.67
2023-05-16T05:05:57.094Z,20.69
2023-05-16T05:08:23.967Z,20.73
2023-05-16T05:10:50.802Z,20.75
2023-05-16T05:13:17.623Z,20.81
2023-05-16T05:15:44.511Z,20.84
2023-05-16T05:18:12.031Z,20.89
2023-05-16T05:20:38.976Z,20.94
2023-05-16T05:23:05.830Z,20.98
2023-05-16T05:25:35.355Z,21.03
2023-05-16T05:28:04.275Z,21.07
2023-05-16T05:30:31.498Z,21.11
2023-05-16T05:32:58.735Z,21.15
2023-05-16T05:35:25.925Z,21.18
2023-05-16T05:37:53.295Z,21.21
2023-05-16T05:40:20.304Z,21.26
2023-05-16T05:42:47.500Z,21.30
2023-05-16T05:45:15.369Z,21.32
2023-05-16T05:47:42.596Z,21.35
2023-05-16T05:50:11.604Z,21.40
2023-05-16T05:52:38.797Z,21.43
2023-05-16T05:55:06.074Z,21.45
2023-05-16T05:57:32.868Z,21.48
2023-05-16T05:59:59.760Z,21.49
2023-05-16T06:02:27.165Z,21.53
2023-05-16T06:04:54.168Z,21.55
2023-05-16T06:07:21.253Z,21.58
2023-05-16T06:09:48.204Z,21.60
2023-05-16T06:12:15.420Z,21.63
2023-05-16T06:14:42.264Z,21.64
2023-05-16T06:17:09.424Z,21.67
2023-05-16T06:19:36.460Z,21.68
2023-05-16T06:22:03.353Z,21.72
2023-05-16T06:24:31.025Z,21.77
2023-05-16T06:26:58.390Z,21.79
2023-05-16T06:29:25.417Z,21.81
2023-05-16T06:31:52.378Z,21.81
2023-05-16T06:34:19.348Z,21.80
2023-05-16T06:36:46.397Z,21.78
2023-05-16T06:39:13.276Z,21.78
2023-05-16T06:41:40.337Z,21.78
2023-05-16T06:44:07.342Z,21.76
2023-05-16T06:46:34.498Z,21.76
2023-05-16T06:49:01.614Z,21.78
2023-05-16T06:51:28.569Z,21.77
2023-05-16T06:53:55.826Z,21.73
2023-05-16T06:56:24.278Z,21.73
2023-05-16T06:58:51.260Z,21.71
2023-05-16T07:01:18.341Z,21.70
2023-05-16T07:03:45.755Z,21.34
2023-05-16T07:06:15.297Z,20.95
2023-05-16T07:08:42.538Z,20.70
2023-05-16T07:11:11.806Z,20.44
2023-05-16T07:13:39.056Z,20.31
2023-05-16T07:16:08.543Z,20.47
2023-05-16T07:18:35.859Z,20.37
2023-05-16T07:21:03.118Z,20.26
2023-05-16T07:23:30.450Z,20.27
2023-05-16T07:25:57.422Z,20.34
2023-05-16T07:28:24.433Z,20.23
2023-05-16T07:31:17.265Z,19.83
2023-05-16T07:33:45.789Z,19.67
2023-05-16T07:46:08.763Z,20.14
2023-05-16T07:48:53.543Z,20.22
2023-05-16T07:51:31.302Z,20.24
2023-05-16T07:54:22.266Z,20.28
2023-05-16T07:56:51.150Z,20.26
2023-05-16T07:59:18.647Z,20.28
2023-05-16T08:01:46.267Z,20.25
2023-05-16T08:04:13.527Z,20.25
2023-05-16T08:06:41.162Z,20.25
2023-05-16T08:09:09.950Z,20.22
2023-05-16T08:11:37.397Z,20.24
2023-05-16T08:14:04.572Z,20.25
2023-05-16T08:16:31.809Z,20.29
2023-05-16T08:18:59.284Z,20.27
2023-05-16T08:21:27.567Z,20.29
2023-05-16T08:23:54.987Z,20.27
2023-05-16T08:26:22.421Z,20.26
2023-05-16T08:28:49.932Z,20.27
2023-05-16T08:31:17.535Z,20.29
2023-05-16T08:33:44.899Z,20.29
2023-05-16T08:36:12.174Z,20.27
2023-05-16T08:38:39.392Z,20.29
2023-05-16T08:41:08.047Z,20.26
2023-05-16T08:43:36.607Z,20.26
2023-05-16T08:46:03.846Z,20.27
2023-05-16T08:48:32.761Z,20.26
2023-05-16T08:51:01.854Z,20.29
2023-05-16T08:53:33.944Z,20.30
2023-05-16T08:56:19.550Z,20.29
2023-05-16T08:58:46.752Z,20.29
2023-05-16T09:01:14.931Z,20.31
2023-05-16T09:03:43.238Z,20.30
2023-05-16T09:06:10.347Z,20.33
2023-05-16T09:08:37.501Z,20.30
2023-05-16T09:11:05.766Z,20.30
2023-05-16T09:13:33.011Z,20.31
2023-05-16T09:16:32.331Z,20.28
2023-05-16T09:19:00.256Z,20.33
2023-05-16T09:21:28.560Z,20.33
2023-05-16T09:23:56.290Z,20.35
2023-05-16T09:26:23.293Z,20.34
2023-05-16T09:28:53.747Z,20.37
2023-05-16T09:31:21.780Z,20.38
2023-05-16T09:33:50.948Z,20.38
2023-05-16T09:36:17.977Z,20.40
2023-05-16T09:38:45.499Z,20.41
2023-05-16T09:41:13.227Z,20.45
2023-05-16T09:43:41.983Z,20.44
2023-05-16T09:46:14.870Z,20.42
2023-05-16T09:48:43.210Z,20.42
2023-05-16T09:51:12.190Z,20.39
2023-05-16T09:53:40.049Z,20.40
2023-05-16T09:56:08.449Z,20.40
2023-05-16T09:58:36.229Z,20.44
2023-05-16T10:01:03.599Z,20.44
2023-05-16T10:03:30.720Z,20.41
2023-05-16T10:06:02.581Z,20.39
2023-05-16T10:08:31.860Z,20.38
2023-05-16T10:10:59.042Z,20.44
2023-05-16T10:13:29.453Z,20.48
2023-05-16T10:16:05.177Z,20.52
2023-05-16T10:18:32.582Z,20.56
2023-05-16T10:21:04.712Z,20.54
2023-05-16T10:23:31.870Z,20.59
2023-05-16T10:26:10.661Z,20.61
2023-05-16T10:28:38.165Z,20.62
2023-05-16T10:31:05.793Z,20.62
2023-05-16T10:33:32.775Z,20.57
2023-05-16T10:36:03.974Z,20.55
2023-05-16T10:38:31.973Z,20.55
2023-05-16T10:40:58.954Z,20.63
2023-05-16T10:43:27.203Z,20.60
2023-05-16T10:46:04.306Z,20.62
2023-05-16T10:48:31.718Z,20.67
2023-05-16T10:50:58.562Z,20.69
2023-05-16T10:53:28.479Z,20.71
2023-05-16T10:56:07.634Z,20.72
2023-05-16T10:58:36.089Z,20.74
2023-05-16T11:01:06.497Z,20.77
2023-05-16T11:03:33.484Z,20.77
2023-05-16T11:06:05.054Z,20.73
2023-05-16T11:08:32.116Z,20.71
2023-05-16T11:11:18.851Z,20.71
2023-05-16T11:13:53.422Z,20.74
2023-05-16T11:16:27.598Z,20.78
2023-05-16T11:18:54.645Z,20.80
2023-05-16T11:21:21.743Z,20.81
2023-05-16T11:24:08.561Z,20.83
2023-05-16T11:26:37.018Z,20.86
2023-05-16T11:29:04.886Z,20.83
2023-05-16T11:31:31.923Z,20.85
2023-05-16T11:33:58.949Z,20.85
2023-05-16T11:36:25.998Z,20.86
2023-05-16T11:38:52.968Z,20.88
2023-05-16T11:41:22.049Z,20.86
2023-05-16T11:43:48.914Z,20.86
2023-05-16T11:46:16.697Z,20.90
2023-05-16T11:48:45.564Z,20.91
2023-05-16T11:51:12.604Z,20.90
2023-05-16T11:53:39.931Z,20.92
2023-05-16T11:56:08.660Z,20.91
2023-05-16T11:58:37.167Z,20.93
2023-05-16T12:01:05.138Z,20.92
2023-05-16T12:03:36.010Z,20.95
2023-05-16T12:06:15.401Z,20.95
2023-05-16T12:08:50.059Z,20.95
2023-05-16T12:11:17.508Z,20.97
2023-05-16T12:13:45.056Z,20.99
2023-05-16T12:16:12.953Z,20.98
2023-05-16T12:18:43.258Z,20.98
2023-05-16T12:21:10.587Z,21.00
2023-05-16T12:23:38.319Z,21.00
2023-05-16T12:26:07.102Z,21.00
2023-05-16T12:28:36.365Z,21.01
2023-05-16T12:31:03.254Z,21.00
2023-05-16T12:33:29.986Z,21.01
2023-05-16T12:35:57.174Z,21.02
2023-05-16T12:38:26.809Z,21.04
2023-05-16T12:40:58.036Z,21.02
2023-05-16T12:43:25.372Z,21.02
2023-05-16T12:45:53.159Z,21.02
2023-05-16T12:48:20.313Z,21.04
2023-05-16T12:50:47.232Z,21.03
2023-05-16T12:53:14.208Z,21.03
2023-05-16T12:55:41.467Z,21.03
2023-05-16T12:58:08.640Z,21.04
2023-05-16T13:00:36.918Z,21.05
2023-05-16T13:03:04.617Z,21.06
2023-05-16T13:05:31.381Z,21.07
2023-05-16T13:07:58.228Z,21.03
2023-05-16T13:10:26.305Z,21.01
2023-05-16T13:12:54.061Z,21.01
2023-05-16T13:15:21.246Z,20.99
2023-05-16T13:17:48.938Z,20.98
2023-05-16T13:20:16.271Z,21.00
2023-05-16T13:22:43.682Z,21.00
2023-05-16T13:25:11.340Z,20.97
2023-05-16T13:27:38.352Z,20.99
2023-05-16T13:30:05.550Z,20.97
2023-05-16T13:32:32.391Z,20.96
2023-05-16T13:34:59.163Z,20.95
2023-05-16T13:37:26.375Z,20.95
2023-05-16T13:39:54.943Z,20.96
2023-05-16T13:42:21.834Z,20.91
2023-05-16T13:44:48.788Z,20.94
2023-05-16T13:47:15.831Z,20.94
2023-05-16T13:49:42.702Z,20.94
2023-05-16T13:52:09.470Z,20.95
2023-05-16T13:54:36.350Z,20.95
2023-05-16T13:57:03.960Z,20.97
2023-05-16T13:59:55.041Z,20.96
2023-05-16T14:02:17.758Z,20.97
2023-05-16T14:04:44.485Z,20.97
2023-05-16T14:07:11.232Z,20.96
2023-05-16T14:09:39.784Z,20.96
2023-05-16T14:12:07.700Z,20.95
2023-05-16T14:14:34.996Z,20.92
2023-05-16T14:17:01.899Z,20.92
2023-05-16T14:19:28.859Z,20.92
2023-05-16T14:21:55.940Z,20.94
2023-05-16T14:24:22.838Z,20.90
2023-05-16T14:26:58.156Z,20.92
2023-05-16T14:29:26.718Z,20.92
2023-05-16T14:31:54.008Z,20.93
2023-05-16T14:34:22.559Z,20.92
2023-05-16T14:36:50.282Z,20.89
2023-05-16T14:39:17.874Z,20.89
2023-05-16T14:41:44.913Z,20.92
2023-05-16T14:44:11.694Z,20.90
2023-05-16T14:46:38.545Z,20.92
2023-05-16T14:49:05.736Z,20.95
2023-05-16T14:51:35.341Z,20.97
2023-05-16T14:54:02.097Z,20.94
2023-05-16T14:56:28.915Z,20.93
2023-05-16T14:58:55.970Z,20.92
2023-05-16T15:01:23.030Z,20.96
2023-05-16T15:03:55.494Z,20.96
2023-05-16T15:06:23.488Z,20.92
2023-05-16T15:08:51.053Z,20.95
2023-05-16T15:11:17.931Z,20.96
2023-05-16T15:13:44.999Z,20.95
2023-05-16T15:16:12.282Z,20.98
2023-05-16T15:18:39.434Z,20.95
2023-05-16T15:21:06.679Z,20.96
2023-05-16T15:23:33.436Z,20.97
2023-05-16T15:26:00.181Z,20.96
2023-05-16T15:28:27.207Z,20.93
2023-05-16T15:30:54.189Z,20.92
2023-05-16T15:33:21.070Z,20.92
2023-05-16T15:35:49.084Z,20.92
2023-05-16T15:38:16.038Z,20.90
2023-05-16T15:40:43.200Z,20.90
2023-05-16T15:43:10.254Z,20.90
2023-05-16T15:45:40.258Z,20.90
2023-05-16T15:48:07.877Z,20.90
2023-05-16T15:50:34.701Z,20.89
2023-05-16T15:53:01.568Z,20.88
2023-05-16T15:55:28.785Z,20.85
2023-05-16T15:57:57.598Z,20.89
2023-05-16T16:00:25.246Z,20.88
2023-05-16T16:02:52.367Z,20.91
2023-05-16T16:05:19.346Z,20.84
2023-05-16T16:07:46.262Z,20.82
2023-05-16T16:10:13.109Z,20.82
2023-05-16T16:12:39.908Z,20.78
2023-05-16T16:15:07.649Z,20.79
2023-05-16T16:17:35.513Z,20.78
2023-05-16T16:20:02.392Z,20.78
2023-05-16T16:22:29.240Z,20.75
2023-05-16T16:24:56.456Z,20.77
2023-05-16T16:27:23.914Z,20.75
2023-05-16T16:29:50.851Z,20.73
2023-05-16T16:32:17.752Z,20.72
2023-05-16T16:34:44.790Z,20.73
2023-05-16T16:37:11.980Z,20.70
2023-05-16T16:39:38.900Z,20.68
2023-05-16T16:42:07.043Z,20.67
2023-05-16T16:44:33.862Z,20.69
2023-05-16T16:47:01.938Z,20.67
2023-05-16T16:49:29.733Z,20.65
2023-05-16T16:51:57.004Z,20.64
2023-05-16T16:54:24.400Z,20.65
2023-05-16T16:56:52.784Z,20.64
2023-05-16T16:59:19.669Z,20.63
2023-05-16T17:01:47.158Z,20.60
2023-05-16T17:04:14.252Z,20.65
2023-05-16T17:06:42.430Z,20.62
2023-05-16T17:09:14.111Z,20.62
2023-05-16T17:11:42.471Z,20.63
2023-05-16T17:14:11.169Z,20.64
2023-05-16T17:16:38.790Z,20.65
2023-05-16T17:19:05.645Z,20.67
2023-05-16T17:21:34.897Z,20.66
2023-05-16T17:24:02.030Z,20.67
2023-05-16T17:26:29.453Z,20.67
2023-05-16T17:28:57.684Z,20.69
2023-05-16T17:31:24.629Z,20.70
2023-05-16T17:33:51.645Z,20.70
2023-05-16T17:36:18.509Z,20.70
2023-05-16T17:38:45.746Z,20.68
2023-05-16T17:41:12.739Z,20.68
2023-05-16T17:43:39.884Z,20.67
2023-05-16T17:46:06.840Z,20.64
2023-05-16T17:48:34.899Z,20.63
2023-05-16T17:51:02.251Z,20.64
2023-05-16T17:53:30.037Z,20.63
2023-05-16T17:55:57.171Z,20.61
2023-05-16T17:58:24.114Z,20.63
2023-05-16T18:00:51.170Z,20.59
2023-05-16T18:03:18.240Z,20.59
2023-05-16T18:05:45.217Z,20.60
2023-05-16T18:08:12.114Z,20.58
2023-05-16T18:10:51.138Z,20.58
2023-05-16T18:13:18.919Z,20.60
2023-05-16T18:15:46.047Z,20.57
2023-05-16T18:18:13.199Z,20.58
2023-05-16T18:20:41.088Z,20.58
2023-05-16T18:23:08.818Z,20.57
2023-05-16T18:25:35.650Z,20.56
2023-05-16T18:28:03.767Z,20.54
2023-05-16T18:30:30.743Z,20.55
2023-05-16T18:33:01.296Z,20.54
2023-05-16T18:35:29.720Z,20.55
2023-05-16T18:37:57.375Z,20.55
2023-05-16T18:40:26.049Z,20.54
2023-05-16T18:42:52.787Z,20.55
2023-05-16T18:45:21.040Z,20.53
2023-05-16T18:47:48.211Z,20.53
2023-05-16T18:50:16.022Z,20.52
2023-05-16T18:52:42.786Z,20.52
2023-05-16T18:55:09.985Z,20.52
2023-05-16T18:57:36.814Z,20.54
2023-05-16T19:00:04.302Z,20.58
2023-05-16T19:02:41.666Z,20.62
2023-05-16T19:05:10.074Z,20.65
2023-05-16T19:07:36.939Z,20.67
2023-05-16T19:10:04.519Z,20.70
2023-05-16T19:12:31.363Z,20.77
2023-05-16T19:14:58.152Z,20.84
2023-05-16T19:17:25.330Z,20.90
2023-05-16T19:19:52.362Z,20.96
2023-05-16T19:22:19.088Z,21.00
2023-05-16T19:24:45.837Z,21.04
2023-05-16T19:27:12.825Z,21.08
2023-05-16T19:29:39.658Z,21.12
2023-05-16T19:32:06.809Z,21.16
2023-05-16T19:34:33.766Z,21.19
2023-05-16T19:37:02.307Z,21.26
2023-05-16T19:39:30.267Z,21.30
2023-05-16T19:41:57.117Z,21.36
2023-05-16T19:44:24.010Z,21.38
2023-05-16T19:46:50.991Z,21.43
2023-05-16T19:49:20.094Z,21.47
2023-05-16T19:51:47.342Z,21.53
2023-05-16T19:54:14.260Z,21.56
2023-05-16T19:56:41.201Z,21.62
2023-05-16T19:59:08.000Z,21.66
2023-05-16T20:01:34.760Z,21.71
2023-05-16T20:04:02.083Z,21.74
2023-05-16T20:06:28.877Z,21.79
2023-05-16T20:08:56.308Z,21.81
2023-05-16T20:11:23.250Z,21.85
2023-05-16T20:13:50.088Z,21.90
2023-05-16T20:16:19.839Z,21.92
2023-05-16T20:18:47.060Z,21.96
2023-05-16T20:21:13.908Z,21.96
2023-05-16T20:23:41.299Z,21.97
2023-05-16T20:26:08.118Z,21.98
2023-05-16T20:28:34.922Z,22.00
2023-05-16T20:31:01.630Z,22.03
2023-05-16T20:33:28.595Z,22.05
2023-05-16T20:35:55.496Z,22.06
2023-05-16T20:38:22.294Z,22.07
2023-05-16T20:40:49.406Z,22.08
2023-05-16T20:43:16.268Z,22.09
2023-05-16T20:45:44.470Z,22.10
2023-05-16T20:48:11.340Z,22.13
2023-05-16T20:50:39.163Z,22.13
2023-05-16T20:53:05.976Z,22.14
2023-05-16T20:55:32.767Z,22.14
2023-05-16T20:58:00.566Z,22.15
2023-05-16T21:00:27.399Z,22.17
2023-05-16T21:02:54.306Z,22.19
2023-05-16T21:05:25.465Z,22.20
2023-05-16T21:07:52.939Z,22.20
2023-05-16T21:10:19.806Z,22.20
2023-05-16T21:12:46.710Z,22.20
2023-05-16T21:15:13.455Z,22.21
2023-05-16T21:17:41.727Z,22.21
2023-05-16T21:20:08.929Z,22.20
2023-05-16T21:22:35.951Z,22.20
2023-05-16T21:25:03.085Z,22.19
2023-05-16T21:27:29.978Z,22.20
2023-05-16T21:29:56.820Z,22.19
2023-05-16T21:32:23.552Z,22.19
2023-05-16T21:34:50.354Z,22.17
2023-05-16T21:37:17.122Z,22.17
2023-05-16T21:39:43.909Z,22.18
2023-05-16T21:42:10.673Z,22.17
2023-05-16T21:44:37.389Z,22.16
2023-05-16T21:47:04.268Z,22.16
2023-05-16T21:49:31.378Z,22.15
2023-05-16T21:51:59.632Z,22.14
2023-05-16T21:54:26.490Z,22.14
2023-05-16T21:56:53.202Z,22.13
2023-05-16T21:59:20.021Z,22.13
2023-05-16T22:01:46.728Z,22.12
2023-05-16T22:04:13.838Z,22.12
2023-05-16T22:06:40.831Z,22.09
2023-05-16T22:09:08.200Z,22.07
2023-05-16T22:11:35.017Z,22.06
2023-05-16T22:24:36.527Z,22.10
2023-05-16T22:27:03.387Z,22.13
2023-05-16T22:29:31.334Z,22.13
2023-05-16T22:31:58.312Z,22.17
2023-05-16T22:34:25.178Z,22.19
2023-05-16T22:36:51.956Z,22.22
2023-05-16T22:39:18.755Z,22.26
2023-05-16T22:41:45.912Z,22.29
2023-05-16T22:44:12.857Z,22.31
2023-05-16T22:46:39.694Z,22.33
2023-05-16T22:49:06.671Z,22.35
2023-05-16T22:51:33.609Z,22.37
2023-05-16T22:54:00.668Z,22.40
2023-05-16T22:56:27.455Z,22.42
2023-05-16T22:58:54.307Z,22.43
2023-05-16T23:01:22.218Z,22.45
2023-05-16T23:03:49.230Z,22.47
2023-05-16T23:06:16.887Z,22.48
2023-05-16T23:08:43.689Z,22.48
2023-05-16T23:11:10.462Z,22.51
2023-05-16T23:13:37.252Z,22.52
2023-05-16T23:16:04.976Z,22.53
2023-05-16T23:18:32.004Z,22.54
2023-05-16T23:20:58.999Z,22.56
2023-05-16T23:23:25.772Z,22.56
2023-05-16T23:25:52.571Z,22.58
2023-05-16T23:28:19.849Z,22.58
2023-05-16T23:30:46.697Z,22.59
2023-05-16T23:33:14.374Z,22.60
2023-05-16T23:35:41.253Z,22.60
2023-05-16T23:38:08.039Z,22.61
2023-05-16T23:40:34.863Z,22.61
2023-05-16T23:43:01.688Z,22.61
2023-05-16T23:45:30.386Z,22.62
2023-05-16T23:47:57.333Z,22.62
2023-05-16T23:50:24.235Z,22.62
2023-05-16T23:52:52.419Z,22.62
2023-05-16T23:55:20.603Z,22.61
2023-05-16T23:57:47.366Z,22.64
